Time,TemperatureF,DewpointF,PressureIn,WindDirection,WindDirectionDegrees,WindSpeedMPH,WindSpeedGustMPH,Humidity,HourlyPrecipIn,Conditions,Clouds,dailyrainin,SoftwareType,DateUTC
2013-03-27 00:00:00,35.1,34.6,30.03,WNW,299,1.0,2.0,98,0.00,CLR,FEW,0.00,WeatherDisplay:10.37,2013-03-27 04:00:00,
2013-03-27 00:05:00,35.1,34.6,30.03,WNW,294,1.0,1.0,98,0.00,RA,FEW,0.00,WeatherDisplay:10.37,2013-03-27 04:05:00,
2013-03-27 00:10:00,35.1,34.6,30.03,West,280,1.0,1.0,98,0.00,RA,FEW,0.00,WeatherDisplay:10.37,2013-03-27 04:10:00,
2013-03-27 00:15:00,35.1,34.6,30.03,WSW,254,0.0,0.0,98,0.00,CLR,FEW,0.00,WeatherDisplay:10.37,2013-03-27 04:15:00,
2013-03-27 00:20:00,35.1,34.6,30.03,WSW,250,0.0,0.0,98,0.00,CLR,FEW,0.00,WeatherDisplay:10.37,2013-03-27 04:20:00,
2013-03-27 00:30:00,35.1,34.6,30.03,West,278,0.0,1.0,98,0.00,CLR,FEW,0.00,WeatherDisplay:10.37,2013-03-27 04:30:00,
2013-03-27 00:40:00,35.1,34.6,30.03,WSW,239,0.0,1.0,98,0.00,CLR,FEW,0.00,WeatherDisplay:10.37,2013-03-27 04:40:00,
2013-03-27 00:45:00,35.1,34.6,30.03,WSW,254,1.0,5.0,98,0.00,CLR,FEW,0.00,WeatherDisplay:10.37,2013-03-27 04:45:00,
2013-03-27 00:50:00,34.7,34.2,30.03,WSW,253,1.0,1.0,98,0.00,CLR,FEW,0.00,WeatherDisplay:10.37,2013-03-27 04:50:00,
2013-03-27 01:00:00,35.1,34.6,30.03,West,263,1.0,3.0,98,0.00,CLR,FEW,0.00,WeatherDisplay:10.37,2013-03-27 05:00:00,
2013-03-27 01:05:00,34.7,34.2,30.03,West,264,2.0,7.0,98,0.00,CLR,FEW,0.00,WeatherDisplay:10.37,2013-03-27 05:05:00,
2013-03-27 01:10:00,35.1,34.6,30.03,West,263,2.0,5.0,98,0.00,CLR,FEW,0.00,WeatherDisplay:10.37,2013-03-27 05:10:00,
2013-03-27 01:20:00,35.1,34.8,30.03,West,280,2.0,2.0,99,0.00,CLR,FEW,0.00,WeatherDisplay:10.37,2013-03-27 05:20:00,
2013-03-27 01:25:00,35.1,34.8,30.03,West,279,2.0,6.0,99,0.00,CLR,FEW,0.00,WeatherDisplay:10.37,2013-03-27 05:25:00,
2013-03-27 01:35:00,34.9,34.6,30.03,WSW,253,3.0,3.0,99,0.00,CLR,FEW,0.00,WeatherDisplay:10.37,2013-03-27 05:35:00,
2013-03-27 01:40:00,35.1,34.8,30.03,West,274,3.0,6.0,99,0.00,CLR,FEW,0.00,WeatherDisplay:10.37,2013-03-27 05:40:00,
2013-03-27 01:50:00,34.9,34.6,30.03,West,263,2.0,2.0,99,0.00,CLR,FEW,0.00,WeatherDisplay:10.37,2013-03-27 05:50:00,
2013-03-27 01:55:00,34.9,34.6,30.03,West,263,2.0,2.0,99,0.00,CLR,FEW,0.00,WeatherDisplay:10.37,2013-03-27 05:55:00,
2013-03-27 02:00:00,34.5,34.3,30.03,West,266,2.0,8.0,99,0.00,CLR,FEW,0.00,WeatherDisplay:10.37,2013-03-27 06:00:00,
2013-03-27 02:05:00,34.5,34.3,30.03,West,261,2.0,8.0,99,0.00,CLR,FEW,0.00,WeatherDisplay:10.37,2013-03-27 06:05:00,
2013-03-27 02:10:00,34.3,34.1,30.03,WSW,241,2.0,7.0,99,0.00,CLR,FEW,0.00,WeatherDisplay:10.37,2013-03-27 06:10:00,
2013-03-27 02:15:00,34.9,34.6,30.03,West,264,3.0,6.0,99,0.00,CLR,FEW,0.00,WeatherDisplay:10.37,2013-03-27 06:15:00,
2013-03-27 02:20:00,34.9,34.6,30.03,WNW,293,3.0,6.0,99,0.00,CLR,FEW,0.00,WeatherDisplay:10.37,2013-03-27 06:20:00,
2013-03-27 02:30:00,34.9,34.6,30.03,West,274,3.0,6.0,99,0.00,CLR,FEW,0.00,WeatherDisplay:10.37,2013-03-27 06:30:00,
2013-03-27 02:40:00,34.3,34.1,30.03,West,272,2.0,6.0,99,0.00,CLR,FEW,0.00,WeatherDisplay:10.37,2013-03-27 06:40:00,
2013-03-27 02:45:00,34.3,34.1,30.00,WNW,288,3.0,7.0,99,0.00,CLR,FEW,0.00,WeatherDisplay:10.37,2013-03-27 06:45:00,
2013-03-27 02:50:00,34.9,34.6,30.00,West,279,5.0,7.0,99,0.00,CLR,FEW,0.00,WeatherDisplay:10.37,2013-03-27 06:50:00,
2013-03-27 03:00:00,34.7,34.4,30.00,West,279,6.0,7.0,99,0.00,CLR,FEW,0.00,WeatherDisplay:10.37,2013-03-27 07:00:00,
2013-03-27 03:05:00,34.7,34.4,30.00,West,270,5.0,7.0,99,0.00,CLR,FEW,0.00,WeatherDisplay:10.37,2013-03-27 07:05:00,
2013-03-27 03:10:00,34.7,34.2,30.00,WSW,254,5.0,6.0,98,0.00,CLR,FEW,0.00,WeatherDisplay:10.37,2013-03-27 07:10:00,
2013-03-27 03:20:00,34.7,34.2,30.00,WNW,295,5.0,5.0,98,0.00,CLR,FEW,0.00,WeatherDisplay:10.37,2013-03-27 07:20:00,
2013-03-27 03:30:00,34.7,34.2,30.00,West,275,5.0,8.0,98,0.00,CLR,FEW,0.00,WeatherDisplay:10.37,2013-03-27 07:30:00,
2013-03-27 03:40:00,34.7,34.2,30.00,WSW,256,5.0,7.0,98,0.00,CLR,FEW,0.00,WeatherDisplay:10.37,2013-03-27 07:40:00,
2013-03-27 03:50:00,34.3,33.8,30.00,WSW,255,2.0,2.0,98,0.00,CLR,FEW,0.00,WeatherDisplay:10.37,2013-03-27 07:50:00,
2013-03-27 04:00:00,34.7,34.2,30.00,WSW,252,1.0,6.0,98,0.00,CLR,FEW,0.00,WeatherDisplay:10.37,2013-03-27 08:00:00,
2013-03-27 04:05:00,34.2,33.9,30.00,WSW,252,2.0,6.0,99,0.00,CLR,FEW,0.00,WeatherDisplay:10.37,2013-03-27 08:05:00,
2013-03-27 04:10:00,34.7,34.4,30.00,WSW,257,2.0,2.0,99,0.00,CLR,FEW,0.00,WeatherDisplay:10.37,2013-03-27 08:10:00,
2013-03-27 04:20:00,34.7,34.4,30.00,West,274,2.0,5.0,99,0.00,CLR,FEW,0.00,WeatherDisplay:10.37,2013-03-27 08:20:00,
2013-03-27 04:25:00,34.0,33.7,30.00,WSW,258,2.0,5.0,99,0.00,CLR,FEW,0.00,WeatherDisplay:10.37,2013-03-27 08:25:00,
2013-03-27 04:30:00,34.3,34.1,30.00,West,263,2.0,5.0,99,0.00,CLR,FEW,0.00,WeatherDisplay:10.37,2013-03-27 08:30:00,
2013-03-27 04:40:00,34.7,34.4,30.00,West,280,2.0,6.0,99,0.00,CLR,FEW,0.00,WeatherDisplay:10.37,2013-03-27 08:40:00,
2013-03-27 04:50:00,34.0,33.7,30.00,West,280,3.0,5.0,99,0.00,CLR,FEW,0.00,WeatherDisplay:10.37,2013-03-27 08:50:00,
2013-03-27 05:00:00,34.2,33.9,30.00,WNW,284,3.0,5.0,99,0.00,CLR,FEW,0.00,WeatherDisplay:10.37,2013-03-27 09:00:00,
2013-03-27 05:05:00,34.0,33.7,30.00,West,276,3.0,6.0,99,0.00,CLR,FEW,0.00,WeatherDisplay:10.37,2013-03-27 09:05:00,
2013-03-27 05:10:00,34.2,33.9,30.00,West,269,3.0,6.0,99,0.00,CLR,FEW,0.00,WeatherDisplay:10.37,2013-03-27 09:10:00,
2013-03-27 05:20:00,34.2,33.9,30.03,West,278,3.0,6.0,99,0.00,CLR,FEW,0.00,WeatherDisplay:10.37,2013-03-27 09:20:00,
2013-03-27 05:30:00,34.0,33.7,30.03,WNW,283,2.0,7.0,99,0.00,CLR,FEW,0.00,WeatherDisplay:10.37,2013-03-27 09:30:00,
2013-03-27 05:40:00,34.2,34.2,30.03,West,276,5.0,5.0,100,0.00,,FEW,0.00,WeatherDisplay:10.37,2013-03-27 09:40:00,
2013-03-27 05:50:00,34.0,33.7,30.03,WNW,283,5.0,5.0,99,0.00,CLR,FEW,0.00,WeatherDisplay:10.37,2013-03-27 09:50:00,
2013-03-27 05:55:00,34.0,33.7,30.03,West,278,3.0,5.0,99,0.00,CLR,FEW,0.00,WeatherDisplay:10.37,2013-03-27 09:55:00,
2013-03-27 06:00:00,34.2,33.9,30.03,West,266,3.0,5.0,99,0.00,CLR,FEW,0.00,WeatherDisplay:10.37,2013-03-27 10:00:00,
2013-03-27 06:05:00,33.8,33.5,30.03,West,269,3.0,5.0,99,0.00,CLR,FEW,0.00,WeatherDisplay:10.37,2013-03-27 10:05:00,
2013-03-27 06:10:00,34.0,33.7,30.03,West,269,3.0,6.0,99,0.00,CLR,FEW,0.00,WeatherDisplay:10.37,2013-03-27 10:10:00,
2013-03-27 06:20:00,33.8,33.5,30.03,West,267,3.0,7.0,99,0.00,CLR,FEW,0.00,WeatherDisplay:10.37,2013-03-27 10:20:00,
2013-03-27 06:30:00,33.8,33.5,30.03,West,276,6.0,13.0,99,0.00,CLR,FEW,0.00,WeatherDisplay:10.37,2013-03-27 10:30:00,
2013-03-27 06:40:00,33.8,33.5,30.03,West,269,8.0,11.0,99,0.00,CLR,FEW,0.00,WeatherDisplay:10.37,2013-03-27 10:40:00,
2013-03-27 06:50:00,33.8,33.5,30.03,West,264,6.0,10.0,99,0.00,CLR,FEW,0.00,WeatherDisplay:10.37,2013-03-27 10:50:00,
2013-03-27 07:00:00,33.8,33.5,30.03,WNW,297,6.0,6.0,99,0.00,CLR,FEW,0.00,WeatherDisplay:10.37,2013-03-27 11:00:00,
2013-03-27 07:05:00,33.4,33.2,30.03,WNW,289,3.0,5.0,99,0.00,CLR,FEW,0.00,WeatherDisplay:10.37,2013-03-27 11:05:00,
2013-03-27 07:10:00,33.4,33.2,30.03,West,275,3.0,5.0,99,0.00,CLR,FEW,0.00,WeatherDisplay:10.37,2013-03-27 11:10:00,
2013-03-27 07:20:00,33.1,32.8,30.03,West,273,5.0,6.0,99,0.00,CLR,FEW,0.00,WeatherDisplay:10.37,2013-03-27 11:20:00,
2013-03-27 07:30:00,32.7,32.5,30.03,West,279,5.0,7.0,99,0.00,CLR,FEW,0.00,WeatherDisplay:10.37,2013-03-27 11:30:00,
2013-03-27 07:40:00,32.7,32.5,30.03,WSW,256,5.0,7.0,99,0.00,CLR,FEW,0.00,WeatherDisplay:10.37,2013-03-27 11:40:00,
2013-03-27 07:50:00,33.1,32.8,30.03,WSW,256,3.0,9.0,99,0.00,CLR,FEW,0.00,WeatherDisplay:10.37,2013-03-27 11:50:00,
2013-03-27 08:00:00,33.4,33.2,30.06,West,270,5.0,5.0,99,0.00,CLR,FEW,0.00,WeatherDisplay:10.37,2013-03-27 12:00:00,
2013-03-27 08:05:00,33.4,33.2,30.06,WSW,242,5.0,5.0,99,0.00,CLR,FEW,0.00,WeatherDisplay:10.37,2013-03-27 12:05:00,
2013-03-27 08:10:00,33.4,33.2,30.06,WSW,244,5.0,6.0,99,0.00,CLR,FEW,0.00,WeatherDisplay:10.37,2013-03-27 12:10:00,
2013-03-27 08:20:00,32.9,32.4,30.06,WNW,290,2.0,7.0,98,0.00,CLR,FEW,0.00,WeatherDisplay:10.37,2013-03-27 12:20:00,
2013-03-27 08:30:00,33.1,32.6,30.06,West,268,3.0,6.0,98,0.00,CLR,FEW,0.00,WeatherDisplay:10.37,2013-03-27 12:30:00,
2013-03-27 08:35:00,33.3,32.5,30.06,WSW,255,5.0,6.0,97,0.00,CLR,FEW,0.00,WeatherDisplay:10.37,2013-03-27 12:35:00,
2013-03-27 08:40:00,33.4,32.7,30.06,WSW,249,5.0,8.0,97,0.00,CLR,FEW,0.00,WeatherDisplay:10.37,2013-03-27 12:40:00,
2013-03-27 08:50:00,36.0,34.9,30.06,WSW,256,7.0,8.0,96,0.00,CLR,FEW,0.00,WeatherDisplay:10.37,2013-03-27 12:50:00,
2013-03-27 09:00:00,36.0,34.4,30.06,West,274,8.0,8.0,94,0.00,CLR,FEW,0.00,WeatherDisplay:10.37,2013-03-27 13:00:00,
2013-03-27 09:05:00,38.8,36.4,30.06,West,268,7.0,15.0,91,0.00,CLR,FEW,0.00,WeatherDisplay:10.37,2013-03-27 13:05:00,
2013-03-27 09:10:00,38.7,35.1,30.06,West,269,8.0,15.0,87,0.00,CLR,FEW,0.00,WeatherDisplay:10.37,2013-03-27 13:10:00,
2013-03-27 09:20:00,38.3,33.0,30.06,WSW,249,10.0,12.0,81,0.00,CLR,FEW,0.00,WeatherDisplay:10.37,2013-03-27 13:20:00,
2013-03-27 09:30:00,37.2,31.6,30.06,WNW,285,10.0,13.0,80,0.00,CLR,FEW,0.00,WeatherDisplay:10.37,2013-03-27 13:30:00,
2013-03-27 09:40:00,38.7,33.0,30.06,WNW,286,12.0,12.0,80,0.00,CLR,FEW,0.00,WeatherDisplay:10.37,2013-03-27 13:40:00,
2013-03-27 09:50:00,38.5,32.8,30.06,West,281,10.0,14.0,80,0.00,CLR,FEW,0.00,WeatherDisplay:10.37,2013-03-27 13:50:00,
2013-03-27 09:55:00,37.6,31.7,30.06,WNW,285,12.0,14.0,79,0.00,CLR,FEW,0.00,WeatherDisplay:10.37,2013-03-27 13:55:00,
2013-03-27 10:00:00,37.6,32.0,30.06,WNW,291,10.0,12.0,80,0.00,CLR,FEW,0.00,WeatherDisplay:10.37,2013-03-27 14:00:00,
2013-03-27 10:05:00,38.1,32.5,30.06,WSW,252,10.0,10.0,80,0.00,CLR,FEW,0.00,WeatherDisplay:10.37,2013-03-27 14:05:00,
2013-03-27 10:10:00,37.6,31.7,30.06,WSW,240,9.0,9.0,79,0.00,CLR,FEW,0.00,WeatherDisplay:10.37,2013-03-27 14:10:00,
2013-03-27 10:20:00,39.4,33.1,30.06,WNW,288,10.0,14.0,78,0.00,CLR,FEW,0.00,WeatherDisplay:10.37,2013-03-27 14:20:00,
2013-03-27 10:30:00,39.2,32.3,30.06,West,278,12.0,12.0,76,0.00,CLR,FEW,0.00,WeatherDisplay:10.37,2013-03-27 14:30:00,
2013-03-27 10:35:00,39.2,31.9,30.06,WNW,303,10.0,10.0,75,0.00,RA,FEW,0.01,WeatherDisplay:10.37,2013-03-27 14:35:00,
2013-03-27 10:40:00,39.2,31.6,30.06,NW,324,9.0,18.0,74,0.00,RA,FEW,0.01,WeatherDisplay:10.37,2013-03-27 14:40:00,
2013-03-27 10:50:00,38.7,31.1,30.08,NW,306,12.0,16.0,74,0.00,CLR,FEW,0.01,WeatherDisplay:10.37,2013-03-27 14:50:00,
2013-03-27 11:00:00,40.3,32.0,30.08,WNW,293,14.0,15.0,72,0.00,CLR,FEW,0.01,WeatherDisplay:10.37,2013-03-27 15:00:00,
2013-03-27 11:05:00,40.1,31.4,30.08,WNW,295,13.0,13.0,71,0.00,CLR,FEW,0.01,WeatherDisplay:10.37,2013-03-27 15:05:00,
2013-03-27 11:10:00,40.5,31.8,30.08,WNW,301,13.0,13.0,71,0.00,CLR,FEW,0.01,WeatherDisplay:10.37,2013-03-27 15:10:00,
2013-03-27 11:20:00,41.5,33.2,30.06,NW,325,10.0,13.0,72,0.00,CLR,FEW,0.03,WeatherDisplay:10.37,2013-03-27 15:20:00,
2013-03-27 11:30:00,42.1,31.9,30.08,WNW,291,10.0,13.0,67,0.00,CLR,FEW,0.03,WeatherDisplay:10.37,2013-03-27 15:30:00,
2013-03-27 11:40:00,42.4,32.6,30.08,WNW,302,12.0,13.0,68,0.00,RA,FEW,0.04,WeatherDisplay:10.37,2013-03-27 15:40:00,
2013-03-27 11:45:00,42.8,32.2,30.08,WNW,286,12.0,14.0,66,0.00,CLR,FEW,0.04,WeatherDisplay:10.37,2013-03-27 15:45:00,
2013-03-27 11:50:00,43.3,33.8,30.08,WNW,288,12.0,14.0,69,0.00,CLR,FEW,0.04,WeatherDisplay:10.37,2013-03-27 15:50:00,
2013-03-27 12:00:00,44.2,32.8,30.08,West,278,12.0,14.0,64,0.01,RA,FEW,0.06,WeatherDisplay:10.37,2013-03-27 16:00:00,
2013-03-27 12:05:00,46.0,34.9,30.08,WNW,284,13.0,15.0,65,0.00,RA,FEW,0.06,WeatherDisplay:10.37,2013-03-27 16:05:00,
2013-03-27 12:10:00,45.9,34.8,30.08,WNW,288,13.0,16.0,65,0.00,CLR,FEW,0.06,WeatherDisplay:10.37,2013-03-27 16:10:00,
2013-03-27 12:15:00,44.1,32.7,30.08,WNW,284,13.0,16.0,64,0.00,CLR,FEW,0.06,WeatherDisplay:10.37,2013-03-27 16:15:00,
2013-03-27 12:20:00,43.2,32.6,30.08,West,273,12.0,12.0,66,0.00,CLR,FEW,0.06,WeatherDisplay:10.37,2013-03-27 16:20:00,
2013-03-27 12:30:00,42.8,33.0,30.08,WNW,293,10.0,10.0,68,0.00,CLR,FEW,0.06,WeatherDisplay:10.37,2013-03-27 16:30:00,
2013-03-27 12:35:00,42.4,33.0,30.08,NW,304,9.0,10.0,69,0.00,CLR,FEW,0.06,WeatherDisplay:10.37,2013-03-27 16:35:00,
2013-03-27 12:40:00,42.4,33.0,30.08,NW,312,9.0,13.0,69,0.00,CLR,FEW,0.06,WeatherDisplay:10.37,2013-03-27 16:40:00,
2013-03-27 12:50:00,43.7,33.5,30.08,WNW,298,13.0,17.0,67,0.00,CLR,FEW,0.06,WeatherDisplay:10.37,2013-03-27 16:50:00,
2013-03-27 13:00:00,43.3,32.4,30.08,NW,320,14.0,16.0,65,0.00,CLR,FEW,0.06,WeatherDisplay:10.37,2013-03-27 17:00:00,
2013-03-27 13:05:00,44.2,33.6,30.08,WNW,303,13.0,15.0,66,0.00,CLR,FEW,0.06,WeatherDisplay:10.37,2013-03-27 17:05:00,
2013-03-27 13:10:00,44.8,34.1,30.08,WNW,283,13.0,15.0,66,0.00,CLR,FEW,0.06,WeatherDisplay:10.37,2013-03-27 17:10:00,
2013-03-27 13:20:00,44.2,32.8,30.08,NW,309,13.0,16.0,64,0.00,CLR,FEW,0.06,WeatherDisplay:10.37,2013-03-27 17:20:00,
2013-03-27 13:25:00,44.2,32.8,30.08,NW,307,13.0,13.0,64,0.00,CLR,FEW,0.06,WeatherDisplay:10.37,2013-03-27 17:25:00,
2013-03-27 13:30:00,44.2,33.2,30.08,WNW,303,12.0,13.0,65,0.00,CLR,FEW,0.06,WeatherDisplay:10.37,2013-03-27 17:30:00,
2013-03-27 13:40:00,44.2,32.8,30.08,West,281,12.0,14.0,64,0.00,CLR,FEW,0.06,WeatherDisplay:10.37,2013-03-27 17:40:00,
2013-03-27 13:50:00,44.1,32.3,30.08,WNW,297,14.0,16.0,63,0.00,CLR,FEW,0.06,WeatherDisplay:10.37,2013-03-27 17:50:00,
2013-03-27 14:00:00,44.6,33.6,30.08,WNW,301,15.0,17.0,65,0.00,CLR,FEW,0.06,WeatherDisplay:10.37,2013-03-27 18:00:00,
2013-03-27 14:05:00,44.8,32.1,30.08,WNW,296,15.0,16.0,61,0.00,CLR,FEW,0.06,WeatherDisplay:10.37,2013-03-27 18:05:00,
2013-03-27 14:10:00,44.6,32.0,30.08,WNW,286,15.0,15.0,61,0.00,CLR,FEW,0.06,WeatherDisplay:10.37,2013-03-27 18:10:00,
2013-03-27 14:20:00,45.3,32.2,30.08,WNW,299,13.0,13.0,60,0.00,CLR,FEW,0.06,WeatherDisplay:10.37,2013-03-27 18:20:00,
2013-03-27 14:25:00,45.3,31.8,30.08,WNW,301,12.0,12.0,59,0.00,CLR,FEW,0.06,WeatherDisplay:10.37,2013-03-27 18:25:00,
2013-03-27 14:30:00,45.7,32.2,30.06,West,279,13.0,18.0,59,0.00,CLR,FEW,0.06,WeatherDisplay:10.37,2013-03-27 18:30:00,
2013-03-27 14:40:00,45.9,31.9,30.06,NW,304,14.0,18.0,58,0.00,CLR,FEW,0.06,WeatherDisplay:10.37,2013-03-27 18:40:00,
2013-03-27 14:50:00,45.3,31.0,30.06,NW,318,15.0,18.0,57,0.00,CLR,FEW,0.06,WeatherDisplay:10.37,2013-03-27 18:50:00,
2013-03-27 14:55:00,45.1,31.7,30.06,NW,323,15.0,15.0,59,0.00,CLR,FEW,0.06,WeatherDisplay:10.37,2013-03-27 18:55:00,
2013-03-27 15:00:00,44.2,31.2,30.06,NNW,327,12.0,12.0,60,0.00,CLR,FEW,0.06,WeatherDisplay:10.37,2013-03-27 19:00:00,
2013-03-27 15:05:00,44.1,31.5,30.06,NW,313,10.0,14.0,61,0.00,CLR,FEW,0.06,WeatherDisplay:10.37,2013-03-27 19:05:00,
2013-03-27 15:10:00,43.9,31.3,30.06,WNW,303,10.0,14.0,61,0.00,CLR,FEW,0.06,WeatherDisplay:10.37,2013-03-27 19:10:00,
2013-03-27 15:20:00,43.5,31.0,30.06,NW,308,13.0,14.0,61,0.00,CLR,FEW,0.06,WeatherDisplay:10.37,2013-03-27 19:20:00,
2013-03-27 15:25:00,43.5,30.5,30.06,WNW,303,13.0,13.0,60,0.00,CLR,FEW,0.06,WeatherDisplay:10.37,2013-03-27 19:25:00,
2013-03-27 15:30:00,43.7,30.7,30.06,NW,314,10.0,13.0,60,0.00,CLR,FEW,0.06,WeatherDisplay:10.37,2013-03-27 19:30:00,
2013-03-27 15:40:00,43.5,30.5,30.06,WNW,284,10.0,14.0,60,0.00,CLR,FEW,0.06,WeatherDisplay:10.37,2013-03-27 19:40:00,
2013-03-27 15:50:00,43.7,31.1,30.06,WNW,291,13.0,15.0,61,0.00,CLR,FEW,0.06,WeatherDisplay:10.37,2013-03-27 19:50:00,
2013-03-27 16:00:00,43.7,31.5,30.06,West,281,14.0,22.0,62,0.00,CLR,FEW,0.06,WeatherDisplay:10.37,2013-03-27 20:00:00,
2013-03-27 16:05:00,43.0,30.0,30.06,WNW,300,13.0,13.0,60,0.00,CLR,FEW,0.06,WeatherDisplay:10.37,2013-03-27 20:05:00,
2013-03-27 16:10:00,43.3,31.2,30.06,NW,309,13.0,17.0,62,0.00,CLR,FEW,0.06,WeatherDisplay:10.37,2013-03-27 20:10:00,
2013-03-27 16:20:00,43.7,31.1,30.06,WNW,284,13.0,14.0,61,0.00,CLR,FEW,0.06,WeatherDisplay:10.37,2013-03-27 20:20:00,
2013-03-27 16:30:00,43.3,30.8,30.06,WNW,282,12.0,12.0,61,0.00,CLR,FEW,0.06,WeatherDisplay:10.37,2013-03-27 20:30:00,
2013-03-27 16:35:00,43.7,31.1,30.06,WNW,287,10.0,10.0,61,0.00,CLR,FEW,0.06,WeatherDisplay:10.37,2013-03-27 20:35:00,
2013-03-27 16:40:00,43.7,30.3,30.06,WNW,297,9.0,13.0,59,0.00,CLR,FEW,0.06,WeatherDisplay:10.37,2013-03-27 20:40:00,
2013-03-27 16:45:00,44.2,30.4,30.06,WNW,291,9.0,13.0,58,0.00,CLR,FEW,0.06,WeatherDisplay:10.37,2013-03-27 20:45:00,
2013-03-27 16:50:00,43.3,28.7,30.06,West,279,10.0,13.0,56,0.00,CLR,FEW,0.06,WeatherDisplay:10.37,2013-03-27 20:50:00,
2013-03-27 17:00:00,44.1,29.8,30.06,WNW,283,12.0,15.0,57,0.00,CLR,FEW,0.06,WeatherDisplay:10.37,2013-03-27 21:00:00,
2013-03-27 17:05:00,44.2,30.0,30.06,WNW,294,12.0,15.0,57,0.00,CLR,FEW,0.06,WeatherDisplay:10.37,2013-03-27 21:05:00,
2013-03-27 17:10:00,44.1,30.6,30.06,West,281,12.0,12.0,59,0.00,CLR,FEW,0.06,WeatherDisplay:10.37,2013-03-27 21:10:00,
2013-03-27 17:20:00,43.9,30.5,30.06,WNW,285,12.0,15.0,59,0.00,CLR,FEW,0.06,WeatherDisplay:10.37,2013-03-27 21:20:00,
2013-03-27 17:30:00,43.7,31.1,30.06,West,271,12.0,12.0,61,0.00,CLR,FEW,0.06,WeatherDisplay:10.37,2013-03-27 21:30:00,
2013-03-27 17:35:00,43.2,30.6,30.06,West,261,10.0,10.0,61,0.00,CLR,FEW,0.06,WeatherDisplay:10.37,2013-03-27 21:35:00,
2013-03-27 17:40:00,43.2,30.6,30.06,WSW,254,10.0,10.0,61,0.00,CLR,FEW,0.06,WeatherDisplay:10.37,2013-03-27 21:40:00,
2013-03-27 17:50:00,42.8,31.1,30.06,West,263,8.0,8.0,63,0.00,CLR,FEW,0.06,WeatherDisplay:10.37,2013-03-27 21:50:00,
2013-03-27 18:00:00,43.2,31.8,30.06,WSW,251,5.0,7.0,64,0.00,CLR,FEW,0.06,WeatherDisplay:10.37,2013-03-27 22:00:00,
2013-03-27 18:05:00,42.8,30.7,30.06,West,270,5.0,13.0,62,0.00,CLR,FEW,0.06,WeatherDisplay:10.37,2013-03-27 22:05:00,
2013-03-27 18:10:00,43.0,30.8,30.06,WNW,290,6.0,13.0,62,0.00,CLR,FEW,0.06,WeatherDisplay:10.37,2013-03-27 22:10:00,
2013-03-27 18:20:00,42.8,31.5,30.06,West,278,7.0,9.0,64,0.00,CLR,FEW,0.06,WeatherDisplay:10.37,2013-03-27 22:20:00,
2013-03-27 18:25:00,42.8,31.1,30.06,West,278,8.0,12.0,63,0.00,CLR,FEW,0.06,WeatherDisplay:10.37,2013-03-27 22:25:00,
2013-03-27 18:30:00,42.6,30.5,30.06,West,264,9.0,15.0,62,0.00,CLR,FEW,0.06,WeatherDisplay:10.37,2013-03-27 22:30:00,
2013-03-27 18:40:00,42.3,29.8,30.06,WNW,287,12.0,13.0,61,0.00,CLR,FEW,0.06,WeatherDisplay:10.37,2013-03-27 22:40:00,
2013-03-27 18:50:00,42.1,30.8,30.06,West,275,8.0,8.0,64,0.00,CLR,FEW,0.06,WeatherDisplay:10.37,2013-03-27 22:50:00,
2013-03-27 18:55:00,41.9,30.6,30.06,West,276,8.0,11.0,64,0.00,CLR,FEW,0.06,WeatherDisplay:10.37,2013-03-27 22:55:00,
2013-03-27 19:00:00,42.1,30.4,30.06,WSW,256,8.0,12.0,63,0.00,CLR,FEW,0.06,WeatherDisplay:10.37,2013-03-27 23:00:00,
2013-03-27 19:05:00,41.5,30.3,30.06,West,261,8.0,12.0,64,0.00,CLR,FEW,0.06,WeatherDisplay:10.37,2013-03-27 23:05:00,
2013-03-27 19:10:00,41.5,30.3,30.06,West,267,9.0,12.0,64,0.00,CLR,FEW,0.06,WeatherDisplay:10.37,2013-03-27 23:10:00,
2013-03-27 19:20:00,41.5,31.0,30.06,WSW,257,9.0,12.0,66,0.00,CLR,FEW,0.06,WeatherDisplay:10.37,2013-03-27 23:20:00,
2013-03-27 19:25:00,41.5,30.6,30.06,West,265,9.0,9.0,65,0.00,CLR,FEW,0.06,WeatherDisplay:10.37,2013-03-27 23:25:00,
2013-03-27 19:30:00,41.2,30.7,30.06,West,280,9.0,9.0,66,0.00,CLR,FEW,0.06,WeatherDisplay:10.37,2013-03-27 23:30:00,
2013-03-27 19:40:00,41.2,31.0,30.06,West,267,6.0,6.0,67,0.00,CLR,FEW,0.06,WeatherDisplay:10.37,2013-03-27 23:40:00,
2013-03-27 19:50:00,40.8,31.4,30.06,West,266,6.0,10.0,69,0.00,CLR,FEW,0.06,WeatherDisplay:10.37,2013-03-27 23:50:00,
2013-03-27 19:55:00,40.8,31.4,30.06,WSW,256,7.0,9.0,69,0.00,CLR,FEW,0.06,WeatherDisplay:10.37,2013-03-27 23:55:00,
2013-03-27 20:00:00,40.8,30.7,30.06,WSW,257,8.0,9.0,67,0.00,CLR,FEW,0.06,WeatherDisplay:10.37,2013-03-28 00:00:00,
2013-03-27 20:05:00,40.6,31.3,30.06,West,271,8.0,12.0,69,0.00,CLR,FEW,0.06,WeatherDisplay:10.37,2013-03-28 00:05:00,
2013-03-27 20:10:00,40.5,31.1,30.06,West,273,8.0,12.0,69,0.00,CLR,FEW,0.06,WeatherDisplay:10.37,2013-03-28 00:10:00,
2013-03-27 20:15:00,40.5,31.4,30.06,West,277,8.0,8.0,70,0.00,CLR,FEW,0.06,WeatherDisplay:10.37,2013-03-28 00:15:00,
2013-03-27 20:20:00,40.5,31.1,30.06,West,269,8.0,10.0,69,0.00,CLR,FEW,0.06,WeatherDisplay:10.37,2013-03-28 00:20:00,
2013-03-27 20:30:00,40.5,31.4,30.06,WSW,245,8.0,13.0,70,0.00,CLR,FEW,0.06,WeatherDisplay:10.37,2013-03-28 00:30:00,
2013-03-27 20:40:00,40.1,31.4,30.06,WSW,255,9.0,10.0,71,0.00,CLR,FEW,0.06,WeatherDisplay:10.37,2013-03-28 00:40:00,
2013-03-27 20:45:00,40.1,32.1,30.06,WSW,256,8.0,10.0,73,0.00,CLR,FEW,0.06,WeatherDisplay:10.37,2013-03-28 00:45:00,
2013-03-27 20:50:00,40.1,32.1,30.06,WSW,254,8.0,10.0,73,0.00,CLR,FEW,0.06,WeatherDisplay:10.37,2013-03-28 00:50:00,
2013-03-27 21:00:00,40.1,32.1,30.06,WSW,246,8.0,12.0,73,0.00,CLR,FEW,0.06,WeatherDisplay:10.37,2013-03-28 01:00:00,
2013-03-27 21:05:00,40.1,32.1,30.08,WSW,241,9.0,15.0,73,0.00,CLR,FEW,0.06,WeatherDisplay:10.37,2013-03-28 01:05:00,
2013-03-27 21:10:00,40.1,32.5,30.06,WSW,244,9.0,15.0,74,0.00,CLR,FEW,0.06,WeatherDisplay:10.37,2013-03-28 01:10:00,
2013-03-27 21:20:00,39.7,32.1,30.06,WSW,239,10.0,11.0,74,0.00,CLR,FEW,0.06,WeatherDisplay:10.37,2013-03-28 01:20:00,
2013-03-27 21:30:00,39.6,32.0,30.08,WSW,253,9.0,9.0,74,0.00,CLR,FEW,0.06,WeatherDisplay:10.37,2013-03-28 01:30:00,
2013-03-27 21:40:00,39.6,32.0,30.08,WSW,257,8.0,8.0,74,0.00,CLR,FEW,0.06,WeatherDisplay:10.37,2013-03-28 01:40:00,
2013-03-27 21:50:00,39.2,31.9,30.08,WSW,256,9.0,15.0,75,0.00,CLR,FEW,0.06,WeatherDisplay:10.37,2013-03-28 01:50:00,
2013-03-27 22:00:00,39.4,32.1,30.08,SW,235,8.0,11.0,75,0.00,CLR,FEW,0.06,WeatherDisplay:10.37,2013-03-28 02:00:00,
2013-03-27 22:05:00,39.4,32.4,30.08,WSW,244,7.0,15.0,76,0.00,CLR,FEW,0.06,WeatherDisplay:10.37,2013-03-28 02:05:00,
2013-03-27 22:10:00,39.2,32.3,30.08,WSW,253,7.0,15.0,76,0.00,CLR,FEW,0.06,WeatherDisplay:10.37,2013-03-28 02:10:00,
2013-03-27 22:15:00,39.0,32.4,30.08,West,273,7.0,15.0,77,0.00,CLR,FEW,0.06,WeatherDisplay:10.37,2013-03-28 02:15:00,
2013-03-27 22:20:00,39.2,32.6,30.08,West,270,9.0,13.0,77,0.00,CLR,FEW,0.06,WeatherDisplay:10.37,2013-03-28 02:20:00,
2013-03-27 22:30:00,39.0,32.7,30.08,West,273,8.0,9.0,78,0.00,CLR,FEW,0.06,WeatherDisplay:10.37,2013-03-28 02:30:00,
2013-03-27 22:40:00,38.8,32.9,30.08,WSW,238,7.0,7.0,79,0.00,CLR,FEW,0.06,WeatherDisplay:10.37,2013-03-28 02:40:00,
2013-03-27 22:50:00,38.8,32.9,30.08,West,259,6.0,8.0,79,0.00,CLR,FEW,0.06,WeatherDisplay:10.37,2013-03-28 02:50:00,
2013-03-27 22:55:00,38.7,32.7,30.08,West,271,6.0,7.0,79,0.00,CLR,FEW,0.06,WeatherDisplay:10.37,2013-03-28 02:55:00,
2013-03-27 23:00:00,38.8,32.9,30.08,WNW,284,6.0,7.0,79,0.00,CLR,FEW,0.06,WeatherDisplay:10.37,2013-03-28 03:00:00,
2013-03-27 23:05:00,38.7,33.0,30.08,West,274,6.0,6.0,80,0.00,CLR,FEW,0.06,WeatherDisplay:10.37,2013-03-28 03:05:00,
2013-03-27 23:10:00,38.7,32.7,30.08,West,275,5.0,10.0,79,0.01,RA,FEW,0.07,WeatherDisplay:10.37,2013-03-28 03:10:00,
2013-03-27 23:20:00,38.3,32.7,30.08,West,263,6.0,9.0,80,0.00,CLR,FEW,0.07,WeatherDisplay:10.37,2013-03-28 03:20:00,
2013-03-27 23:30:00,38.5,32.8,30.08,West,276,7.0,9.0,80,0.00,CLR,FEW,0.07,WeatherDisplay:10.37,2013-03-28 03:30:00,
2013-03-27 23:40:00,38.1,32.5,30.08,West,267,6.0,7.0,80,0.00,CLR,FEW,0.07,WeatherDisplay:10.37,2013-03-28 03:40:00,
2013-03-27 23:50:00,38.1,32.5,30.08,WNW,301,7.0,12.0,80,0.00,CLR,FEW,0.07,WeatherDisplay:10.37,2013-03-28 03:50:00,